This is the latest recevied weather packets stored in our database for station/object KA8DUX-2. If no packets are shown the sender has not sent any weather packets the latest 10 day(s).
| Time | Temp. | Humidity | Pressure | Rain* | Wind** | Luminosity | Snow |
|---|---|---|---|---|---|---|---|
| 1778092890 | 12.78° C | 37% | 1011.8 hPa | 0 mm | - | 278 W/m² | - |
| 1778092586 | 11.67° C | 39% | 1011.7 hPa | 0 mm | - | 333 W/m² | - |
| 1778092282 | 12.22° C | 38% | 1011.8 hPa | 0 mm | - | 304 W/m² | - |
| 1778091980 | 13.33° C | 38% | 1011.8 hPa | 0 mm | - | 551 W/m² | - |
| 1778091677 | 13.33° C | 35% | 1011.8 hPa | 0 mm | - | 248 W/m² | - |
| 1778091375 | 13.89° C | 36% | 1011.7 hPa | 0 mm | - | 461 W/m² | - |
| 1778091072 | 13.33° C | 37% | 1011.9 hPa | 0 mm | - | 859 W/m² | - |
| 1778090768 | 12.78° C | 40% | 1011.6 hPa | 0 mm | - | 856 W/m² | - |
| 1778090465 | 12.78° C | 40% | 1011.7 hPa | 0 mm | - | 275 W/m² | - |
| 1778090161 | 12.78° C | 39% | 1011.7 hPa | 0 mm | - | 287 W/m² | - |
| 1778089857 | 12.78° C | 37% | 1011.6 hPa | 0 mm | - | 301 W/m² | - |
| 1778089556 | 12.78° C | 40% | 1011.8 hPa | 0 mm | - | 325 W/m² | - |
| 1778089252 | 13.89° C | 36% | 1011.7 hPa | 0 mm | - | 491 W/m² | - |
| 1778088950 | 12.78° C | 41% | 1011.8 hPa | 0 mm | - | 625 W/m² | - |
| 1778088647 | 12.78° C | 38% | 1011.7 hPa | 0 mm | - | 338 W/m² | - |
| 1778088344 | 12.22° C | 39% | 1011.8 hPa | 0 mm | - | 414 W/m² | - |
| 1778088040 | 11.67° C | 41% | 1011.9 hPa | 0 mm | - | 295 W/m² | - |
| 1778087737 | 11.67° C | 43% | 1012.1 hPa | 0 mm | - | 247 W/m² | - |
| 1778087435 | 11.67° C | 44% | 1012.1 hPa | 0 mm | - | 221 W/m² | - |
| 1778087132 | 12.22° C | 41% | 1011.9 hPa | 0 mm | - | 170 W/m² | - |
| 1778086824 | 12.78° C | 40% | 1012 hPa | 0 mm | - | 121 W/m² | - |
| 1778086522 | 13.33° C | 39% | 1012.1 hPa | 0 mm | - | 220 W/m² | - |
| 1778086218 | 13.89° C | 39% | 1012.1 hPa | 0 mm | - | 494 W/m² | - |
| 1778085915 | 12.22° C | 42% | 1012 hPa | 0 mm | - | 742 W/m² | - |
| 1778085613 | 11.67° C | 42% | 1012.1 hPa | 0 mm | - | 582 W/m² | - |
* Rain latest hour (hover to see other rain measurements)
** Current wind speed in m/s (hover to see current wind gust speed)